Time;durP1;ratioP1;P1;durP2;ratioP2;P2;SDS_P1;SDS_P2;PMS_P1;PMS_P2;Temp;Humidity;BMP_temperature;BMP_pressure;BME280_temperature;BME280_humidity;BME280_pressure;Samples;Min_cycle;Max_cycle;Signal;HPM_P1;HPM_P2
2024/01/10 00:03:30;;;;;;;190.00;121.90;;;;;;;-13.24;94.93;101315.98;435224;1258;140646;-61
2024/01/10 00:13:36;;;;;;;173.70;111.40;;;;;;;-13.26;95.08;101309.61;434999;1259;143104;-60
2024/01/10 00:23:41;;;;;;;162.80;108.40;;;;;;;-13.33;94.97;101306.88;433568;1258;144537;-60
2024/01/10 00:33:47;;;;;;;151.80;100.90;;;;;;;-13.39;95.23;101300.63;433129;1260;141045;-61
2024/01/10 00:43:53;;;;;;;147.70;96.80;;;;;;;-13.41;95.29;101294.44;433353;1260;142128;-61
2024/01/10 00:53:59;;;;;;;141.90;94.70;;;;;;;-13.44;95.26;101296.30;433497;1260;140697;-61
2024/01/10 01:04:05;;;;;;;123.70;84.50;;;;;;;-13.44;95.51;101292.04;433595;1258;141839;-60
2024/01/10 01:14:11;;;;;;;113.20;77.20;;;;;;;-13.44;95.68;101285.17;433324;1254;142226;-60
2024/01/10 01:24:17;;;;;;;140.20;90.40;;;;;;;-13.44;95.72;101275.06;434197;1257;140977;-60
2024/01/10 01:34:22;;;;;;;126.20;82.40;;;;;;;-13.46;95.62;101264.80;433699;1258;141839;-61
2024/01/10 01:44:28;;;;;;;119.10;77.70;;;;;;;-13.51;95.77;101270.27;435642;1258;140987;-61
2024/01/10 01:54:35;;;;;;;108.40;73.10;;;;;;;-13.52;95.97;101272.05;432895;1258;141243;-61
2024/01/10 02:04:41;;;;;;;112.50;72.90;;;;;;;-13.52;95.91;101262.64;438257;1260;140873;-61
2024/01/10 02:14:47;;;;;;;109.60;73.10;;;;;;;-13.55;95.83;101254.18;433375;1260;141985;-60
2024/01/10 02:24:56;;;;;;;108.80;70.70;;;;;;;-13.58;95.90;101253.65;432871;1258;271856;-61
2024/01/10 02:35:02;;;;;;;105.40;72.60;;;;;;;-13.58;96.25;101245.72;433005;1259;140943;-61
2024/01/10 02:45:09;;;;;;;103.70;73.10;;;;;;;-13.59;96.22;101244.33;442309;1257;142166;-61
2024/01/10 02:55:15;;;;;;;108.40;71.70;;;;;;;-13.60;96.18;101234.66;433564;1258;142881;-61
2024/01/10 03:05:21;;;;;;;103.00;72.90;;;;;;;-13.64;96.03;101234.61;433031;1259;141625;-60
2024/01/10 03:15:27;;;;;;;101.10;73.30;;;;;;;-13.67;96.19;101231.06;434814;1259;142160;-61
2024/01/10 03:25:32;;;;;;;114.30;76.40;;;;;;;-13.70;96.41;101231.36;433016;1256;141058;-61
2024/01/10 03:35:38;;;;;;;106.20;71.20;;;;;;;-13.73;96.46;101226.98;433023;1258;141381;-61
2024/01/10 03:45:44;;;;;;;111.70;75.60;;;;;;;-13.73;96.50;101219.55;433107;1260;141296;-61
2024/01/10 03:55:50;;;;;;;110.50;75.00;;;;;;;-13.74;96.53;101214.45;433029;1260;141223;-61
2024/01/10 04:05:56;;;;;;;112.90;72.80;;;;;;;-13.75;96.32;101211.86;432923;1260;141727;-60
2024/01/10 04:16:03;;;;;;;93.20;60.80;;;;;;;-13.78;96.25;101200.74;433254;1257;142540;-61
2024/01/10 04:26:08;;;;;;;90.00;64.10;;;;;;;-13.80;96.52;101197.09;433447;1256;142665;-61
2024/01/10 04:36:14;;;;;;;100.30;64.20;;;;;;;-13.81;96.67;101207.32;433562;1258;140553;-59
2024/01/10 04:46:20;;;;;;;90.60;61.10;;;;;;;-13.79;96.81;101211.98;433465;1260;142353;-63
2024/01/10 04:56:26;;;;;;;85.20;59.60;;;;;;;-13.78;96.81;101206.16;433701;1257;141877;-61
2024/01/10 05:06:32;;;;;;;81.20;58.20;;;;;;;-13.79;96.86;101202.23;433418;1259;141524;-61
2024/01/10 05:16:38;;;;;;;81.60;57.20;;;;;;;-13.82;96.59;101193.29;433546;1256;140965;-62
2024/01/10 05:26:44;;;;;;;72.40;50.60;;;;;;;-13.85;96.73;101197.52;433621;1260;142230;-60
2024/01/10 05:36:50;;;;;;;70.50;49.40;;;;;;;-13.86;96.86;101193.59;433732;1258;140546;-61
2024/01/10 05:46:59;;;;;;;72.20;46.90;;;;;;;-13.86;96.92;101182.92;433332;1257;141021;-60
2024/01/10 05:57:06;;;;;;;67.20;47.50;;;;;;;-13.88;96.66;101171.39;435503;1255;142628;-60
2024/01/10 06:07:11;;;;;;;85.00;51.30;;;;;;;-13.87;96.70;101163.34;434458;1259;141424;-60
2024/01/10 06:17:18;;;;;;;77.00;52.50;;;;;;;-13.86;96.76;101159.86;433060;1256;140738;-59
2024/01/10 06:27:24;;;;;;;72.90;47.00;;;;;;;-13.86;96.94;101162.36;433235;1260;142074;-61
2024/01/10 06:37:30;;;;;;;69.70;46.00;;;;;;;-13.85;96.91;101158.40;433236;1260;141813;-61
2024/01/10 06:47:38;;;;;;;71.70;47.20;;;;;;;-13.82;97.33;101156.78;433773;1258;141086;-60
2024/01/10 06:57:44;;;;;;;66.50;43.80;;;;;;;-13.73;97.38;101147.15;434035;1258;141672;-58
2024/01/10 07:07:50;;;;;;;66.00;45.40;;;;;;;-13.61;97.60;101143.99;433793;1256;140595;-59
2024/01/10 07:17:56;;;;;;;63.70;43.50;;;;;;;-13.39;97.71;101143.03;438021;1254;141785;-60
2024/01/10 07:28:02;;;;;;;75.40;49.80;;;;;;;-12.89;98.27;101143.30;433422;1258;140852;-58
2024/01/10 07:38:08;;;;;;;74.10;46.50;;;;;;;-12.05;98.90;101132.61;433638;1258;140612;-59
2024/01/10 07:48:14;;;;;;;64.90;44.40;;;;;;;-10.52;99.08;101136.34;438992;1255;140919;-61
2024/01/10 07:58:20;;;;;;;54.10;34.30;;;;;;;-8.15;98.12;101128.58;433308;1254;142286;-61
2024/01/10 08:08:26;;;;;;;63.70;41.90;;;;;;;-4.67;96.92;101131.73;434485;1258;140872;-61
2024/01/10 08:18:32;;;;;;;55.00;40.00;;;;;;;-1.69;92.76;101139.64;434008;1254;141392;-67
2024/01/10 08:28:38;;;;;;;56.80;40.60;;;;;;;0.73;88.79;101144.71;433275;1256;139111;-64
2024/01/10 08:38:44;;;;;;;58.40;38.50;;;;;;;2.90;85.95;101138.04;433823;1254;139759;-66
2024/01/10 08:48:50;;;;;;;60.00;38.10;;;;;;;4.29;81.63;101135.63;433569;1255;139276;-62
2024/01/10 08:58:57;;;;;;;46.90;36.20;;;;;;;6.31;80.49;101132.00;433728;1255;139188;-66
2024/01/10 09:09:03;;;;;;;53.70;34.00;;;;;;;7.83;75.65;101120.21;433533;1255;139293;-64
2024/01/10 09:19:09;;;;;;;48.00;36.40;;;;;;;7.65;71.12;101125.02;433517;1254;139222;-67
2024/01/10 09:29:16;;;;;;;48.30;34.50;;;;;;;7.94;68.69;101131.58;447229;1254;139321;-66
2024/01/10 09:39:22;;;;;;;46.80;32.20;;;;;;;9.43;69.42;101134.08;433715;1256;139896;-62
2024/01/10 09:49:29;;;;;;;48.80;31.90;;;;;;;8.91;66.57;101120.54;433812;1254;139532;-62
2024/01/10 09:59:35;;;;;;;43.30;31.60;;;;;;;4.09;63.17;101118.14;433239;1254;139477;-60
2024/01/10 10:09:40;;;;;;;43.70;28.80;;;;;;;0.86;58.98;101112.61;433516;1258;139236;-61
2024/01/10 10:19:47;;;;;;;36.90;25.20;;;;;;;-1.29;60.05;101109.38;433466;1254;139124;-63
2024/01/10 10:29:53;;;;;;;43.70;23.40;;;;;;;-2.64;61.29;101112.42;442517;1254;140547;-62
2024/01/10 10:39:59;;;;;;;51.80;30.80;;;;;;;-3.66;62.30;101106.63;433448;1258;140806;-68
2024/01/10 10:50:09;;;;;;;41.80;26.90;;;;;;;-4.22;64.11;101091.67;433237;1256;140612;-61
2024/01/10 11:00:17;;;;;;;33.40;20.50;;;;;;;-4.51;65.05;101080.30;437941;1254;142307;-60
2024/01/10 11:10:29;;;;;;;29.70;19.50;;;;;;;-4.67;65.45;101063.01;434914;1256;139490;-62
2024/01/10 11:20:51;;;;;;;30.40;17.80;;;;;;;-4.76;65.60;101063.84;434294;1256;139219;-65
2024/01/10 11:30:56;;;;;;;27.50;16.70;;;;;;;-4.72;65.76;101064.80;434545;1255;139359;-59
2024/01/10 11:41:04;;;;;;;31.70;20.50;;;;;;;-4.64;66.01;101063.27;433529;1256;140230;-61
2024/01/10 11:51:14;;;;;;;35.30;21.60;;;;;;;-4.56;66.33;101052.66;433858;1256;139874;-63
2024/01/10 12:01:21;;;;;;;33.10;20.70;;;;;;;-4.45;66.80;101029.81;438769;1258;139126;-62
2024/01/10 12:11:28;;;;;;;34.90;21.00;;;;;;;-4.32;66.69;101021.02;433607;1258;139373;-63
2024/01/10 12:21:34;;;;;;;34.80;21.70;;;;;;;-4.19;66.48;101013.92;433174;1258;139851;-59
2024/01/10 12:31:40;;;;;;;30.80;20.80;;;;;;;-4.08;66.41;101009.34;433246;1256;140252;-59
2024/01/10 12:41:46;;;;;;;31.00;20.30;;;;;;;-4.00;66.35;101001.11;433224;1256;141361;-59
2024/01/10 12:51:52;;;;;;;34.80;18.20;;;;;;;-3.91;66.24;100994.76;433130;1255;140584;-60
2024/01/10 13:01:58;;;;;;;31.70;18.50;;;;;;;-3.86;66.11;100992.11;433643;1258;140400;-60
2024/01/10 13:12:03;;;;;;;;;;;;;;;-3.81;65.91;100974.59;433224;1256;139369;-59
2024/01/10 13:22:09;;;;;;;31.20;18.90;;;;;;;-3.79;65.94;100953.40;433274;1256;125521;-59
2024/01/10 13:32:15;;;;;;;;;;;;;;;-3.77;65.86;100951.53;433261;1258;139432;-59
2024/01/10 13:42:21;;;;;;;47.90;28.00;;;;;;;-3.80;66.35;100957.84;433018;1256;126547;-59
2024/01/10 13:52:25;;;;;;;;;;;;;;;-3.84;66.96;100956.39;433374;1256;139708;-59
2024/01/10 14:02:31;;;;;;;44.70;27.00;;;;;;;-3.92;67.29;100948.38;433379;1254;125663;-60
2024/01/10 14:12:37;;;;;;;56.00;30.90;;;;;;;-4.08;67.76;100943.49;432977;1258;140593;-59
2024/01/10 14:22:42;;;;;;;;;;;;;;;-4.26;67.95;100933.59;433082;1258;301856;-59
2024/01/10 14:32:48;;;;;;;54.50;33.10;;;;;;;-4.47;68.51;100926.20;436201;1258;126463;-59
2024/01/10 14:42:55;;;;;;;43.90;28.10;;;;;;;-4.71;68.58;100923.51;433843;1256;141428;-59
2024/01/10 14:53:02;;;;;;;47.80;30.30;;;;;;;-4.97;68.74;100924.67;434070;1255;139847;-59
2024/01/10 15:03:08;;;;;;;44.90;26.20;;;;;;;-5.25;69.03;100931.40;435963;1256;139550;-59
2024/01/10 15:13:28;;;;;;;36.70;25.80;;;;;;;-5.58;69.35;100923.16;433287;1256;139788;-59
2024/01/10 15:23:34;;;;;;;53.60;30.60;;;;;;;-5.88;69.79;100923.98;433557;1257;139542;-61
2024/01/10 15:33:41;;;;;;;50.10;30.70;;;;;;;-6.17;70.43;100927.89;434163;1258;139966;-60
2024/01/10 15:43:48;;;;;;;49.10;31.00;;;;;;;-6.45;70.86;100925.46;434692;1258;142057;-59
2024/01/10 15:53:56;;;;;;;52.90;31.60;;;;;;;-6.65;71.59;100916.41;437630;1256;140129;-60
2024/01/10 16:04:02;;;;;;;56.60;35.60;;;;;;;-6.79;72.01;100895.91;434037;1258;141350;-59
2024/01/10 16:14:09;;;;;;;86.30;51.40;;;;;;;-6.96;72.48;100888.80;437861;1258;140114;-59
2024/01/10 16:24:15;;;;;;;87.00;50.20;;;;;;;-7.10;72.98;100879.19;436804;1255;140508;-60
2024/01/10 16:34:21;;;;;;;118.70;64.30;;;;;;;-7.29;73.45;100873.05;433621;1258;140958;-59
2024/01/10 16:44:27;;;;;;;122.00;73.40;;;;;;;-7.44;73.90;100870.04;438253;1256;140236;-58
2024/01/10 16:54:33;;;;;;;103.10;60.60;;;;;;;-7.58;74.68;100849.23;433360;1258;140796;-59
2024/01/10 17:04:39;;;;;;;92.20;53.50;;;;;;;-7.69;75.04;100840.23;433355;1256;140501;-59
2024/01/10 17:14:46;;;;;;;76.80;50.60;;;;;;;-7.78;75.54;100834.15;434132;1256;140734;-59
2024/01/10 17:24:52;;;;;;;79.70;50.40;;;;;;;-7.88;75.85;100828.41;433048;1258;140457;-59
2024/01/10 17:34:58;;;;;;;76.70;51.00;;;;;;;-8.01;76.24;100829.53;433381;1256;140753;-59
2024/01/10 17:45:04;;;;;;;89.50;51.60;;;;;;;-8.14;76.41;100823.70;433613;1256;140135;-59
2024/01/10 17:55:10;;;;;;;84.60;52.30;;;;;;;-8.25;76.92;100813.12;433916;1258;141017;-59
2024/01/10 18:05:16;;;;;;;81.10;52.70;;;;;;;-8.36;77.18;100809.05;433493;1256;140284;-58
2024/01/10 18:15:22;;;;;;;92.10;52.30;;;;;;;-8.45;77.71;100813.02;437247;1258;140173;-58
2024/01/10 18:25:28;;;;;;;74.40;48.30;;;;;;;-8.56;77.92;100796.36;434145;1259;140686;-58
2024/01/10 18:35:36;;;;;;;82.50;54.70;;;;;;;-8.65;78.38;100782.15;433930;1258;140228;-59
2024/01/10 18:45:42;;;;;;;82.50;52.80;;;;;;;-8.76;78.88;100788.91;434217;1257;140797;-60
2024/01/10 18:55:48;;;;;;;90.40;55.50;;;;;;;-8.84;79.30;100787.95;433634;1258;140276;-59
2024/01/10 19:05:54;;;;;;;99.40;62.80;;;;;;;-8.95;79.52;100785.22;433555;1258;141431;-59
2024/01/10 19:16:00;;;;;;;108.40;64.90;;;;;;;-9.02;79.97;100789.21;433771;1258;141745;-59
2024/01/10 19:26:06;;;;;;;111.70;68.30;;;;;;;-9.12;80.26;100785.29;433524;1259;140460;-60
2024/01/10 19:36:12;;;;;;;110.70;71.70;;;;;;;-9.23;80.62;100793.75;438704;1258;141461;-59
2024/01/10 19:46:19;;;;;;;99.70;68.70;;;;;;;-9.27;81.14;100798.49;433530;1256;141993;-59
2024/01/10 19:56:25;;;;;;;106.80;71.30;;;;;;;-9.34;81.46;100783.00;433505;1260;140582;-58
2024/01/10 20:06:31;;;;;;;117.30;77.40;;;;;;;-9.46;81.76;100772.40;433660;1257;141005;-59
2024/01/10 20:16:37;;;;;;;110.90;75.30;;;;;;;-9.56;82.22;100761.69;433505;1259;142324;-60
2024/01/10 20:26:43;;;;;;;102.00;70.60;;;;;;;-9.64;82.65;100762.73;433852;1260;141246;-59
2024/01/10 20:36:49;;;;;;;110.40;72.80;;;;;;;-9.75;82.99;100758.63;433492;1254;142093;-58
2024/01/10 20:46:55;;;;;;;120.40;82.10;;;;;;;-9.83;83.26;100763.07;433625;1254;140570;-59
2024/01/10 20:57:01;;;;;;;120.80;79.40;;;;;;;-9.88;83.63;100754.73;434134;1259;141370;-59
2024/01/10 21:07:09;;;;;;;135.80;93.20;;;;;;;-9.95;84.04;100752.95;434025;1259;140588;-59
2024/01/10 21:17:19;;;;;;;140.80;91.00;;;;;;;-10.01;84.38;100743.09;434645;1259;141412;-59
2024/01/10 21:27:27;;;;;;;132.00;85.00;;;;;;;-10.04;84.73;100738.23;434524;1254;141075;-60
2024/01/10 21:37:33;;;;;;;144.20;94.90;;;;;;;-10.10;85.06;100735.63;434017;1260;140794;-59
2024/01/10 21:47:39;;;;;;;155.00;97.60;;;;;;;-10.13;85.61;100708.41;433622;1254;140744;-59
2024/01/10 21:57:45;;;;;;;158.50;99.70;;;;;;;-10.16;85.84;100692.35;434159;1259;140918;-59
2024/01/10 22:07:51;;;;;;;148.40;93.70;;;;;;;-10.22;86.07;100683.17;437592;1254;140862;-59
2024/01/10 22:17:57;;;;;;;141.00;88.90;;;;;;;-10.25;86.36;100666.95;433942;1259;142050;-60
2024/01/10 22:28:04;;;;;;;136.90;92.70;;;;;;;-10.29;86.74;100656.50;434058;1258;141334;-59
2024/01/10 22:38:10;;;;;;;116.50;78.90;;;;;;;-10.30;87.18;100648.84;435262;1258;141465;-61
2024/01/10 22:48:17;;;;;;;119.40;83.00;;;;;;;-10.27;87.21;100639.12;433910;1260;140717;-60
2024/01/10 22:58:23;;;;;;;109.60;74.70;;;;;;;-10.24;87.72;100639.73;436423;1258;141142;-62
2024/01/10 23:08:35;;;;;;;119.00;80.20;;;;;;;-10.21;87.91;100638.01;433900;1254;140798;-59
2024/01/10 23:18:41;;;;;;;110.00;74.90;;;;;;;-10.13;88.16;100621.17;437561;1258;140892;-59
2024/01/10 23:28:47;;;;;;;106.60;71.10;;;;;;;-10.06;88.52;100605.33;433559;1259;141137;-60
2024/01/10 23:38:53;;;;;;;110.00;74.20;;;;;;;-9.95;88.69;100592.02;433891;1254;140747;-59
2024/01/10 23:48:59;;;;;;;99.50;68.50;;;;;;;-9.76;88.99;100576.56;433860;1254;140759;-59
2024/01/10 23:59:05;;;;;;;110.40;70.90;;;;;;;-9.64;89.02;100563.77;433615;1254;140603;-58
